sensor_id;sensor_type;location;lat;lon;timestamp;pressure;altitude;pressure_sealevel;temperature;humidity
29045;BME280;16133;49.486;12.176;2024-02-26T00:01:45;95855.44;;;-2.56;100.00
29045;BME280;16133;49.486;12.176;2024-02-26T00:04:12;95862.69;;;-2.60;100.00
29045;BME280;16133;49.486;12.176;2024-02-26T00:06:40;95853.69;;;-2.65;100.00
29045;BME280;16133;49.486;12.176;2024-02-26T00:09:07;95854.63;;;-2.66;100.00
29045;BME280;16133;49.486;12.176;2024-02-26T00:11:32;95856.28;;;-2.65;100.00
29045;BME280;16133;49.486;12.176;2024-02-26T00:13:57;95857.09;;;-2.65;100.00
29045;BME280;16133;49.486;12.176;2024-02-26T00:16:23;95848.34;;;-2.64;100.00
29045;BME280;16133;49.486;12.176;2024-02-26T00:18:49;95853.28;;;-2.61;100.00
29045;BME280;16133;49.486;12.176;2024-02-26T00:21:14;95846.28;;;-2.60;100.00
29045;BME280;16133;49.486;12.176;2024-02-26T00:23:39;95845.22;;;-2.58;100.00
29045;BME280;16133;49.486;12.176;2024-02-26T00:26:04;95836.19;;;-2.54;100.00
29045;BME280;16133;49.486;12.176;2024-02-26T00:28:30;95831.66;;;-2.52;100.00
29045;BME280;16133;49.486;12.176;2024-02-26T00:30:56;95831.81;;;-2.53;100.00
29045;BME280;16133;49.486;12.176;2024-02-26T00:33:22;95831.38;;;-2.49;100.00
29045;BME280;16133;49.486;12.176;2024-02-26T00:35:48;95825.94;;;-2.46;100.00
29045;BME280;16133;49.486;12.176;2024-02-26T00:38:14;95823.06;;;-2.43;100.00
29045;BME280;16133;49.486;12.176;2024-02-26T00:40:39;95827.31;;;-2.42;100.00
29045;BME280;16133;49.486;12.176;2024-02-26T00:43:06;95817.44;;;-2.38;100.00
29045;BME280;16133;49.486;12.176;2024-02-26T00:45:31;95820.16;;;-2.39;100.00
29045;BME280;16133;49.486;12.176;2024-02-26T00:47:57;95822.09;;;-2.42;100.00
29045;BME280;16133;49.486;12.176;2024-02-26T00:50:23;95822.22;;;-2.43;100.00
29045;BME280;16133;49.486;12.176;2024-02-26T00:52:48;95823.88;;;-2.42;100.00
29045;BME280;16133;49.486;12.176;2024-02-26T00:55:14;95823.19;;;-2.44;100.00
29045;BME280;16133;49.486;12.176;2024-02-26T00:57:39;95831.78;;;-2.44;100.00
29045;BME280;16133;49.486;12.176;2024-02-26T01:00:06;95823.19;;;-2.44;100.00
29045;BME280;16133;49.486;12.176;2024-02-26T01:02:34;95824.81;;;-2.43;100.00
29045;BME280;16133;49.486;12.176;2024-02-26T01:04:59;95821.53;;;-2.45;100.00
29045;BME280;16133;49.486;12.176;2024-02-26T01:07:25;95823.59;;;-2.49;100.00
29045;BME280;16133;49.486;12.176;2024-02-26T01:09:50;95823.75;;;-2.60;100.00
29045;BME280;16133;49.486;12.176;2024-02-26T01:12:15;95833.31;;;-2.60;100.00
29045;BME280;16133;49.486;12.176;2024-02-26T01:14:41;95832.38;;;-2.69;100.00
29045;BME280;16133;49.486;12.176;2024-02-26T01:17:06;95828.66;;;-2.76;100.00
29045;BME280;16133;49.486;12.176;2024-02-26T01:19:31;95842.91;;;-2.80;100.00
29045;BME280;16133;49.486;12.176;2024-02-26T01:21:57;95832.22;;;-2.86;100.00
29045;BME280;16133;49.486;12.176;2024-02-26T01:24:22;95833.59;;;-2.92;100.00
29045;BME280;16133;49.486;12.176;2024-02-26T01:26:48;95836.31;;;-2.94;100.00
29045;BME280;16133;49.486;12.176;2024-02-26T01:29:13;95833.84;;;-2.95;100.00
29045;BME280;16133;49.486;12.176;2024-02-26T01:31:38;95835.22;;;-3.01;100.00
29045;BME280;16133;49.486;12.176;2024-02-26T01:34:04;95834.69;;;-3.04;100.00
29045;BME280;16133;49.486;12.176;2024-02-26T01:36:29;95830.31;;;-2.84;100.00
29045;BME280;16133;49.486;12.176;2024-02-26T01:38:54;95826.38;;;-2.88;100.00
29045;BME280;16133;49.486;12.176;2024-02-26T01:41:20;95819.94;;;-3.04;100.00
29045;BME280;16133;49.486;12.176;2024-02-26T01:43:45;95820.22;;;-3.07;100.00
29045;BME280;16133;49.486;12.176;2024-02-26T01:46:13;95821.56;;;-3.12;100.00
29045;BME280;16133;49.486;12.176;2024-02-26T01:48:42;95823.72;;;-3.17;100.00
29045;BME280;16133;49.486;12.176;2024-02-26T01:51:08;95821.69;;;-3.23;100.00
29045;BME280;16133;49.486;12.176;2024-02-26T01:53:35;95830.69;;;-3.27;100.00
29045;BME280;16133;49.486;12.176;2024-02-26T01:56:00;95824.13;;;-3.31;100.00
29045;BME280;16133;49.486;12.176;2024-02-26T01:58:26;95818.94;;;-3.31;100.00
29045;BME280;16133;49.486;12.176;2024-02-26T02:00:52;95823.44;;;-3.33;100.00
29045;BME280;16133;49.486;12.176;2024-02-26T02:03:18;95827.25;;;-3.38;100.00
29045;BME280;16133;49.486;12.176;2024-02-26T02:05:44;95836.25;;;-3.42;100.00
29045;BME280;16133;49.486;12.176;2024-02-26T02:08:10;95845.25;;;-3.46;100.00
29045;BME280;16133;49.486;12.176;2024-02-26T02:10:38;95837.03;;;-3.51;100.00
29045;BME280;16133;49.486;12.176;2024-02-26T02:13:03;95839.91;;;-3.54;100.00
29045;BME280;16133;49.486;12.176;2024-02-26T02:15:29;95839.06;;;-3.54;100.00
29045;BME280;16133;49.486;12.176;2024-02-26T02:17:54;95834.00;;;-3.56;100.00
29045;BME280;16133;49.486;12.176;2024-02-26T02:20:33;95832.41;;;-3.57;100.00
29045;BME280;16133;49.486;12.176;2024-02-26T02:22:59;95827.34;;;-3.58;100.00
29045;BME280;16133;49.486;12.176;2024-02-26T02:25:24;95834.56;;;-3.62;100.00
29045;BME280;16133;49.486;12.176;2024-02-26T02:27:50;95833.72;;;-3.62;100.00
29045;BME280;16133;49.486;12.176;2024-02-26T02:30:17;95840.00;;;-3.65;100.00
29045;BME280;16133;49.486;12.176;2024-02-26T02:32:42;95832.47;;;-3.68;100.00
29045;BME280;16133;49.486;12.176;2024-02-26T02:35:08;95836.97;;;-3.70;100.00
29045;BME280;16133;49.486;12.176;2024-02-26T02:37:34;95831.91;;;-3.71;100.00
29045;BME280;16133;49.486;12.176;2024-02-26T02:39:59;95835.59;;;-3.74;100.00
29045;BME280;16133;49.486;12.176;2024-02-26T02:42:25;95828.75;;;-3.75;100.00
29045;BME280;16133;49.486;12.176;2024-02-26T02:44:51;95834.78;;;-3.74;100.00
29045;BME280;16133;49.486;12.176;2024-02-26T02:47:16;95826.31;;;-3.76;100.00
29045;BME280;16133;49.486;12.176;2024-02-26T02:49:42;95832.34;;;-3.76;100.00
29045;BME280;16133;49.486;12.176;2024-02-26T02:52:07;95829.84;;;-3.77;100.00
29045;BME280;16133;49.486;12.176;2024-02-26T02:54:32;95825.63;;;-3.78;100.00
29045;BME280;16133;49.486;12.176;2024-02-26T02:56:58;95828.22;;;-3.78;100.00
29045;BME280;16133;49.486;12.176;2024-02-26T02:59:23;95825.50;;;-3.77;100.00
29045;BME280;16133;49.486;12.176;2024-02-26T03:01:48;95821.97;;;-3.76;100.00
29045;BME280;16133;49.486;12.176;2024-02-26T03:04:17;95820.06;;;-3.74;100.00
29045;BME280;16133;49.486;12.176;2024-02-26T03:06:42;95818.66;;;-3.78;100.00
29045;BME280;16133;49.486;12.176;2024-02-26T03:09:08;95824.97;;;-3.71;100.00
29045;BME280;16133;49.486;12.176;2024-02-26T03:11:33;95828.25;;;-3.69;100.00
29045;BME280;16133;49.486;12.176;2024-02-26T03:13:59;95821.16;;;-3.67;100.00
29045;BME280;16133;49.486;12.176;2024-02-26T03:16:24;95823.47;;;-3.64;100.00
29045;BME280;16133;49.486;12.176;2024-02-26T03:18:49;95827.72;;;-3.63;100.00
29045;BME280;16133;49.486;12.176;2024-02-26T03:21:15;95825.84;;;-3.61;100.00
29045;BME280;16133;49.486;12.176;2024-02-26T03:23:40;95824.03;;;-3.60;100.00
29045;BME280;16133;49.486;12.176;2024-02-26T03:26:05;95823.09;;;-3.59;100.00
29045;BME280;16133;49.486;12.176;2024-02-26T03:28:31;95819.44;;;-3.57;100.00
29045;BME280;16133;49.486;12.176;2024-02-26T03:30:59;95831.72;;;-3.49;100.00
29045;BME280;16133;49.486;12.176;2024-02-26T03:33:24;95820.16;;;-3.45;100.00
29045;BME280;16133;49.486;12.176;2024-02-26T03:35:49;95826.00;;;-3.43;100.00
29045;BME280;16133;49.486;12.176;2024-02-26T03:38:15;95823.41;;;-3.43;100.00
29045;BME280;16133;49.486;12.176;2024-02-26T03:40:40;95819.06;;;-3.43;100.00
29045;BME280;16133;49.486;12.176;2024-02-26T03:43:05;95807.59;;;-3.40;100.00
29045;BME280;16133;49.486;12.176;2024-02-26T03:45:32;95813.31;;;-3.37;100.00
29045;BME280;16133;49.486;12.176;2024-02-26T03:47:58;95809.78;;;-3.35;100.00
29045;BME280;16133;49.486;12.176;2024-02-26T03:50:23;95809.50;;;-3.32;100.00
29045;BME280;16133;49.486;12.176;2024-02-26T03:52:49;95809.50;;;-3.32;100.00
29045;BME280;16133;49.486;12.176;2024-02-26T03:55:14;95810.88;;;-3.28;100.00
29045;BME280;16133;49.486;12.176;2024-02-26T03:57:40;95810.38;;;-3.22;100.00
29045;BME280;16133;49.486;12.176;2024-02-26T04:00:06;95805.19;;;-3.22;100.00
29045;BME280;16133;49.486;12.176;2024-02-26T04:02:31;95798.88;;;-3.20;100.00
29045;BME280;16133;49.486;12.176;2024-02-26T04:04:57;95795.91;;;-3.15;100.00
29045;BME280;16133;49.486;12.176;2024-02-26T04:07:22;95782.94;;;-3.15;100.00
29045;BME280;16133;49.486;12.176;2024-02-26T04:09:47;95778.69;;;-3.16;100.00
29045;BME280;16133;49.486;12.176;2024-02-26T04:12:13;95779.50;;;-3.16;100.00
29045;BME280;16133;49.486;12.176;2024-02-26T04:14:38;95779.50;;;-3.16;100.00
29045;BME280;16133;49.486;12.176;2024-02-26T04:17:04;95779.63;;;-3.17;100.00
29045;BME280;16133;49.486;12.176;2024-02-26T04:19:29;95780.59;;;-3.18;100.00
29045;BME280;16133;49.486;12.176;2024-02-26T04:21:55;95786.34;;;-3.15;100.00
29045;BME280;16133;49.486;12.176;2024-02-26T04:24:20;95791.25;;;-3.12;100.00
29045;BME280;16133;49.486;12.176;2024-02-26T04:26:45;95792.63;;;-3.08;100.00
29045;BME280;16133;49.486;12.176;2024-02-26T04:29:11;95790.41;;;-3.03;100.00
29045;BME280;16133;49.486;12.176;2024-02-26T04:31:40;95783.88;;;-2.97;100.00
29045;BME280;16133;49.486;12.176;2024-02-26T04:34:05;95780.88;;;-2.93;100.00
29045;BME280;16133;49.486;12.176;2024-02-26T04:36:31;95789.75;;;-2.85;100.00
29045;BME280;16133;49.486;12.176;2024-02-26T04:38:56;95790.16;;;-2.80;100.00
29045;BME280;16133;49.486;12.176;2024-02-26T04:41:21;95787.41;;;-2.79;100.00
29045;BME280;16133;49.486;12.176;2024-02-26T04:43:47;95778.41;;;-2.75;100.00
29045;BME280;16133;49.486;12.176;2024-02-26T04:46:12;95785.09;;;-2.72;100.00
29045;BME280;16133;49.486;12.176;2024-02-26T04:48:38;95777.16;;;-2.71;100.00
29045;BME280;16133;49.486;12.176;2024-02-26T04:51:07;95772.81;;;-2.70;100.00
29045;BME280;16133;49.486;12.176;2024-02-26T04:53:33;95783.06;;;-2.69;100.00
29045;BME280;16133;49.486;12.176;2024-02-26T04:55:58;95778.81;;;-2.70;100.00
29045;BME280;16133;49.486;12.176;2024-02-26T04:58:23;95776.22;;;-2.70;100.00
29045;BME280;16133;49.486;12.176;2024-02-26T05:00:49;95773.75;;;-2.71;100.00
29045;BME280;16133;49.486;12.176;2024-02-26T05:03:14;95769.53;;;-2.72;100.00
29045;BME280;16133;49.486;12.176;2024-02-26T05:05:43;95775.28;;;-2.69;100.00
29045;BME280;16133;49.486;12.176;2024-02-26T05:08:09;95775.28;;;-2.69;100.00
29045;BME280;16133;49.486;12.176;2024-02-26T05:10:35;95787.00;;;-2.74;100.00
29045;BME280;16133;49.486;12.176;2024-02-26T05:13:04;95794.53;;;-2.81;100.00
29045;BME280;16133;49.486;12.176;2024-02-26T05:15:30;95791.09;;;-2.91;100.00
29045;BME280;16133;49.486;12.176;2024-02-26T05:17:55;95792.34;;;-2.95;100.00
29045;BME280;16133;49.486;12.176;2024-02-26T05:20:20;95795.59;;;-3.03;100.00
29045;BME280;16133;49.486;12.176;2024-02-26T05:22:46;95803.13;;;-3.09;100.00
29045;BME280;16133;49.486;12.176;2024-02-26T05:25:15;95806.28;;;-3.15;100.00
29045;BME280;16133;49.486;12.176;2024-02-26T05:27:41;95821.84;;;-3.15;100.00
29045;BME280;16133;49.486;12.176;2024-02-26T05:30:07;95828.91;;;-3.17;100.00
29045;BME280;16133;49.486;12.176;2024-02-26T05:32:32;95830.56;;;-3.16;100.00
29045;BME280;16133;49.486;12.176;2024-02-26T05:34:58;95827.69;;;-3.13;100.00
29045;BME280;16133;49.486;12.176;2024-02-26T05:37:23;95829.22;;;-3.11;100.00
29045;BME280;16133;49.486;12.176;2024-02-26T05:39:48;95829.06;;;-3.09;100.00
29045;BME280;16133;49.486;12.176;2024-02-26T05:42:13;95834.13;;;-3.08;100.00
29045;BME280;16133;49.486;12.176;2024-02-26T05:44:39;95834.69;;;-3.04;100.00
29045;BME280;16133;49.486;12.176;2024-02-26T05:47:05;95841.25;;;-3.00;100.00
29045;BME280;16133;49.486;12.176;2024-02-26T05:49:30;95838.38;;;-2.97;100.00
29045;BME280;16133;49.486;12.176;2024-02-26T05:51:56;95838.63;;;-2.91;100.00
29045;BME280;16133;49.486;12.176;2024-02-26T05:54:21;95831.56;;;-2.88;100.00
29045;BME280;16133;49.486;12.176;2024-02-26T05:56:46;95834.16;;;-2.88;100.00
29045;BME280;16133;49.486;12.176;2024-02-26T05:59:12;95833.84;;;-2.95;100.00
29045;BME280;16133;49.486;12.176;2024-02-26T06:01:37;95837.94;;;-3.02;100.00
29045;BME280;16133;49.486;12.176;2024-02-26T06:04:02;95843.69;;;-3.08;100.00
29045;BME280;16133;49.486;12.176;2024-02-26T06:06:28;95850.22;;;-3.14;100.00
29045;BME280;16133;49.486;12.176;2024-02-26T06:08:53;95858.16;;;-3.15;100.00
29045;BME280;16133;49.486;12.176;2024-02-26T06:11:18;95851.31;;;-3.16;100.00
29045;BME280;16133;49.486;12.176;2024-02-26T06:13:44;95860.84;;;-3.17;100.00
29045;BME280;16133;49.486;12.176;2024-02-26T06:16:09;95853.22;;;-3.18;100.00
29045;BME280;16133;49.486;12.176;2024-02-26T06:18:35;95863.47;;;-3.17;100.00
29045;BME280;16133;49.486;12.176;2024-02-26T06:21:00;95860.75;;;-3.15;100.00
29045;BME280;16133;49.486;12.176;2024-02-26T06:23:25;95858.16;;;-3.15;100.00
29045;BME280;16133;49.486;12.176;2024-02-26T06:25:51;95861.69;;;-3.16;100.00
29045;BME280;16133;49.486;12.176;2024-02-26T06:28:17;95860.03;;;-3.17;100.00
29045;BME280;16133;49.486;12.176;2024-02-26T06:30:42;95865.22;;;-3.17;100.00
29045;BME280;16133;49.486;12.176;2024-02-26T06:33:08;95862.22;;;-3.13;100.00
29045;BME280;16133;49.486;12.176;2024-02-26T06:35:33;95865.53;;;-3.11;100.00
29045;BME280;16133;49.486;12.176;2024-02-26T06:37:59;95862.78;;;-3.09;100.00
29045;BME280;16133;49.486;12.176;2024-02-26T06:40:24;95869.63;;;-3.08;100.00
29045;BME280;16133;49.486;12.176;2024-02-26T06:42:50;95865.81;;;-3.04;100.00
29045;BME280;16133;49.486;12.176;2024-02-26T06:45:17;95862.00;;;-3.00;100.00
29045;BME280;16133;49.486;12.176;2024-02-26T06:47:43;95862.25;;;-2.94;100.00
29045;BME280;16133;49.486;12.176;2024-02-26T06:50:11;95865.00;;;-2.85;100.00
29045;BME280;16133;49.486;12.176;2024-02-26T06:52:36;95860.63;;;-2.75;100.00
29045;BME280;16133;49.486;12.176;2024-02-26T06:55:02;95859.69;;;-2.65;100.00
29045;BME280;16133;49.486;12.176;2024-02-26T06:57:30;95855.44;;;-2.56;100.00
29045;BME280;16133;49.486;12.176;2024-02-26T06:59:55;95854.09;;;-2.51;100.00
29045;BME280;16133;49.486;12.176;2024-02-26T07:02:21;95857.34;;;-2.39;100.00
29045;BME280;16133;49.486;12.176;2024-02-26T07:04:46;95865.94;;;-2.29;100.00
29045;BME280;16133;49.486;12.176;2024-02-26T07:07:12;95859.38;;;-2.23;100.00
29045;BME280;16133;49.486;12.176;2024-02-26T07:09:37;95864.56;;;-2.14;100.00
29045;BME280;16133;49.486;12.176;2024-02-26T07:12:03;95870.69;;;-2.05;100.00
29045;BME280;16133;49.486;12.176;2024-02-26T07:14:28;95866.28;;;-1.95;100.00
29045;BME280;16133;49.486;12.176;2024-02-26T07:16:54;95866.41;;;-1.87;100.00
29045;BME280;16133;49.486;12.176;2024-02-26T07:19:21;95868.03;;;-1.76;100.00
29045;BME280;16133;49.486;12.176;2024-02-26T07:21:46;95872.38;;;-1.67;100.00
29045;BME280;16133;49.486;12.176;2024-02-26T07:24:11;95865.38;;;-1.57;100.00
29045;BME280;16133;49.486;12.176;2024-02-26T07:26:37;95865.31;;;-1.48;100.00
29045;BME280;16133;49.486;12.176;2024-02-26T07:29:02;95868.53;;;-1.36;100.00
29045;BME280;16133;49.486;12.176;2024-02-26T07:31:29;95871.78;;;-1.24;100.00
29045;BME280;16133;49.486;12.176;2024-02-26T07:33:54;95877.47;;;-1.11;100.00
29045;BME280;16133;49.486;12.176;2024-02-26T07:36:19;95872.72;;;-0.98;100.00
29045;BME280;16133;49.486;12.176;2024-02-26T07:38:45;95874.16;;;-0.86;100.00
29045;BME280;16133;49.486;12.176;2024-02-26T07:41:11;95868.59;;;-0.73;100.00
29045;BME280;16133;49.486;12.176;2024-02-26T07:43:36;95863.16;;;-0.62;100.00
29045;BME280;16133;49.486;12.176;2024-02-26T07:46:02;95863.06;;;-0.53;100.00
29045;BME280;16133;49.486;12.176;2024-02-26T07:48:27;95868.88;;;-0.41;100.00
29045;BME280;16133;49.486;12.176;2024-02-26T07:50:53;95866.28;;;-0.23;100.00
29045;BME280;16133;49.486;12.176;2024-02-26T07:53:18;95864.38;;;-0.13;100.00
29045;BME280;16133;49.486;12.176;2024-02-26T07:55:44;95865.78;;;-0.01;100.00
29045;BME280;16133;49.486;12.176;2024-02-26T07:58:09;95871.88;;;0.08;100.00
29045;BME280;16133;49.486;12.176;2024-02-26T08:00:34;95866.53;;;0.17;100.00
29045;BME280;16133;49.486;12.176;2024-02-26T08:03:00;95865.97;;;0.31;100.00
29045;BME280;16133;49.486;12.176;2024-02-26T08:05:25;95870.41;;;0.39;100.00
29045;BME280;16133;49.486;12.176;2024-02-26T08:07:51;95874.41;;;0.51;100.00
29045;BME280;16133;49.486;12.176;2024-02-26T08:10:16;95869.38;;;0.58;100.00
29045;BME280;16133;49.486;12.176;2024-02-26T08:12:42;95874.47;;;0.67;100.00
29045;BME280;16133;49.486;12.176;2024-02-26T08:15:08;95869.94;;;0.77;100.00
29045;BME280;16133;49.486;12.176;2024-02-26T08:17:33;95865.59;;;0.86;100.00
29045;BME280;16133;49.486;12.176;2024-02-26T08:20:00;95870.34;;;0.90;100.00
29045;BME280;16133;49.486;12.176;2024-02-26T08:22:25;95873.16;;;1.05;100.00
29045;BME280;16133;49.486;12.176;2024-02-26T08:24:51;95868.31;;;1.18;100.00
29045;BME280;16133;49.486;12.176;2024-02-26T08:27:16;95869.78;;;1.29;100.00
29045;BME280;16133;49.486;12.176;2024-02-26T08:29:42;95857.75;;;1.44;100.00
29045;BME280;16133;49.486;12.176;2024-02-26T08:32:08;95859.06;;;1.56;100.00
29045;BME280;16133;49.486;12.176;2024-02-26T08:34:33;95841.25;;;1.76;100.00
29045;BME280;16133;49.486;12.176;2024-02-26T08:36:58;95843.53;;;2.03;100.00
29045;BME280;16133;49.486;12.176;2024-02-26T08:39:24;95848.38;;;2.38;100.00
29045;BME280;16133;49.486;12.176;2024-02-26T08:41:51;95851.38;;;2.74;100.00
29045;BME280;16133;49.486;12.176;2024-02-26T08:44:16;95845.47;;;3.11;100.00
29045;BME280;16133;49.486;12.176;2024-02-26T08:46:41;95849.22;;;3.48;100.00
29045;BME280;16133;49.486;12.176;2024-02-26T08:49:07;95839.75;;;3.84;100.00
29045;BME280;16133;49.486;12.176;2024-02-26T08:51:32;95834.59;;;4.13;100.00
29045;BME280;16133;49.486;12.176;2024-02-26T08:53:57;95824.47;;;4.40;100.00
29045;BME280;16133;49.486;12.176;2024-02-26T08:56:23;95827.47;;;4.66;100.00
29045;BME280;16133;49.486;12.176;2024-02-26T08:58:48;95817.66;;;4.89;100.00
29045;BME280;16133;49.486;12.176;2024-02-26T09:01:15;95822.72;;;5.05;100.00
29045;BME280;16133;49.486;12.176;2024-02-26T09:03:41;95820.72;;;5.07;100.00
29045;BME280;16133;49.486;12.176;2024-02-26T09:06:07;95806.00;;;5.27;100.00
29045;BME280;16133;49.486;12.176;2024-02-26T09:08:32;95813.13;;;5.34;100.00
29045;BME280;16133;49.486;12.176;2024-02-26T09:10:58;95816.78;;;5.33;100.00
29045;BME280;16133;49.486;12.176;2024-02-26T09:13:23;95808.63;;;5.49;100.00
29045;BME280;16133;49.486;12.176;2024-02-26T09:15:49;95814.41;;;5.59;100.00
29045;BME280;16133;49.486;12.176;2024-02-26T09:18:14;95833.88;;;5.64;100.00
29045;BME280;16133;49.486;12.176;2024-02-26T09:20:41;95855.25;;;5.55;100.00
29045;BME280;16133;49.486;12.176;2024-02-26T09:23:06;95869.41;;;5.75;100.00
29045;BME280;16133;49.486;12.176;2024-02-26T09:25:31;95874.84;;;5.88;100.00
29045;BME280;16133;49.486;12.176;2024-02-26T09:27:59;95877.66;;;6.08;100.00
29045;BME280;16133;49.486;12.176;2024-02-26T09:30:25;95875.59;;;6.24;100.00
29045;BME280;16133;49.486;12.176;2024-02-26T09:32:50;95894.91;;;6.32;100.00
29045;BME280;16133;49.486;12.176;2024-02-26T09:35:16;95921.31;;;6.45;100.00
29045;BME280;16133;49.486;12.176;2024-02-26T09:37:41;95938.25;;;6.57;100.00
29045;BME280;16133;49.486;12.176;2024-02-26T09:40:09;95958.63;;;6.69;100.00
29045;BME280;16133;49.486;12.176;2024-02-26T09:42:37;95967.84;;;6.80;100.00
29045;BME280;16133;49.486;12.176;2024-02-26T09:45:05;95969.03;;;7.05;100.00
29045;BME280;16133;49.486;12.176;2024-02-26T09:47:34;95967.97;;;7.28;100.00
29045;BME280;16133;49.486;12.176;2024-02-26T09:50:01;95965.78;;;7.38;100.00
29045;BME280;16133;49.486;12.176;2024-02-26T09:52:28;95964.53;;;7.34;100.00
29045;BME280;16133;49.486;12.176;2024-02-26T09:54:53;95961.91;;;7.34;100.00
29045;BME280;16133;49.486;12.176;2024-02-26T09:57:19;95960.75;;;7.43;100.00
29045;BME280;16133;49.486;12.176;2024-02-26T09:59:46;95964.78;;;7.39;100.00
29045;BME280;16133;49.486;12.176;2024-02-26T10:02:14;95961.34;;;7.45;100.00
29045;BME280;16133;49.486;12.176;2024-02-26T10:04:41;95968.25;;;7.46;100.00
29045;BME280;16133;49.486;12.176;2024-02-26T10:07:11;95956.81;;;7.73;100.00
29045;BME280;16133;49.486;12.176;2024-02-26T10:09:40;95964.75;;;7.73;98.48
29045;BME280;16133;49.486;12.176;2024-02-26T10:12:08;95966.78;;;7.78;93.62
29045;BME280;16133;49.486;12.176;2024-02-26T10:14:35;95977.41;;;7.97;93.87
29045;BME280;16133;49.486;12.176;2024-02-26T10:17:01;95985.38;;;8.10;89.70
29045;BME280;16133;49.486;12.176;2024-02-26T10:19:28;95988.66;;;8.26;88.30
29045;BME280;16133;49.486;12.176;2024-02-26T10:21:59;95995.88;;;8.45;85.28
29045;BME280;16133;49.486;12.176;2024-02-26T10:24:26;95984.91;;;8.61;82.23
29045;BME280;16133;49.486;12.176;2024-02-26T10:26:52;95992.25;;;8.72;81.45
29045;BME280;16133;49.486;12.176;2024-02-26T10:29:18;95997.56;;;8.85;80.24
29045;BME280;16133;49.486;12.176;2024-02-26T10:31:44;95979.84;;;8.92;79.53
29045;BME280;16133;49.486;12.176;2024-02-26T10:34:10;95982.66;;;8.97;78.34
29045;BME280;16133;49.486;12.176;2024-02-26T10:36:36;95982.88;;;9.02;77.33
29045;BME280;16133;49.486;12.176;2024-02-26T10:39:05;95979.63;;;9.00;76.48
29045;BME280;16133;49.486;12.176;2024-02-26T10:41:30;95984.09;;;9.06;75.55
29045;BME280;16133;49.486;12.176;2024-02-26T10:43:58;95991.44;;;8.91;75.75
29045;BME280;16133;49.486;12.176;2024-02-26T10:46:23;95989.38;;;8.93;76.68
29045;BME280;16133;49.486;12.176;2024-02-26T10:48:52;95996.09;;;9.02;78.22
29045;BME280;16133;49.486;12.176;2024-02-26T10:51:26;95994.47;;;9.15;76.56
29045;BME280;16133;49.486;12.176;2024-02-26T10:53:55;95989.16;;;9.21;75.71
29045;BME280;16133;49.486;12.176;2024-02-26T10:56:24;95984.69;;;9.35;75.57
29045;BME280;16133;49.486;12.176;2024-02-26T10:58:53;95994.81;;;9.51;75.70
29045;BME280;16133;49.486;12.176;2024-02-26T11:01:19;95995.03;;;9.49;75.21
29045;BME280;16133;49.486;12.176;2024-02-26T11:03:50;95994.63;;;9.52;75.33
29045;BME280;16133;49.486;12.176;2024-02-26T11:06:16;95997.66;;;9.56;73.50
29045;BME280;16133;49.486;12.176;2024-02-26T11:08:43;95998.06;;;9.53;73.63
29045;BME280;16133;49.486;12.176;2024-02-26T11:11:09;95992.00;;;9.46;75.35
29045;BME280;16133;49.486;12.176;2024-02-26T11:13:38;96002.56;;;9.52;73.95
29045;BME280;16133;49.486;12.176;2024-02-26T11:16:06;95989.75;;;9.49;75.19
29045;BME280;16133;49.486;12.176;2024-02-26T11:18:32;95992.56;;;9.54;74.00
29045;BME280;16133;49.486;12.176;2024-02-26T11:20:59;95983.63;;;9.49;72.59
29045;BME280;16133;49.486;12.176;2024-02-26T11:23:25;95991.16;;;9.52;72.76
29045;BME280;16133;49.486;12.176;2024-02-26T11:25:56;95994.59;;;9.66;73.65
29045;BME280;16133;49.486;12.176;2024-02-26T11:28:26;95989.63;;;9.82;70.74
29045;BME280;16133;49.486;12.176;2024-02-26T11:30:54;95988.88;;;9.69;70.15
29045;BME280;16133;49.486;12.176;2024-02-26T11:33:20;95987.25;;;9.68;70.35
29045;BME280;16133;49.486;12.176;2024-02-26T11:35:46;95991.72;;;9.67;69.43
29045;BME280;16133;49.486;12.176;2024-02-26T11:38:19;95989.69;;;9.69;69.50
29045;BME280;16133;49.486;12.176;2024-02-26T11:40:45;95989.28;;;9.72;69.43
29045;BME280;16133;49.486;12.176;2024-02-26T11:43:11;95988.66;;;9.70;69.75
29045;BME280;16133;49.486;12.176;2024-02-26T11:48:20;95983.16;;;9.72;68.61
29045;BME280;16133;49.486;12.176;2024-02-26T11:50:52;95989.28;;;9.72;70.43
29045;BME280;16133;49.486;12.176;2024-02-26T11:53:28;95991.06;;;9.78;69.24
29045;BME280;16133;49.486;12.176;2024-02-26T11:59:09;95987.84;;;9.76;67.99
29045;BME280;16133;49.486;12.176;2024-02-26T12:04:05;95983.16;;;9.72;69.35
29045;BME280;16133;49.486;12.176;2024-02-26T12:06:33;95980.31;;;9.73;69.59
29045;BME280;16133;49.486;12.176;2024-02-26T12:09:05;95987.63;;;9.71;70.02
29045;BME280;16133;49.486;12.176;2024-02-26T12:11:30;95972.16;;;9.68;69.69
29045;BME280;16133;49.486;12.176;2024-02-26T12:13:56;95984.28;;;9.95;69.15
29045;BME280;16133;49.486;12.176;2024-02-26T12:16:35;95990.41;;;9.96;68.16
29045;BME280;16133;49.486;12.176;2024-02-26T12:19:04;95994.22;;;10.06;68.25
29045;BME280;16133;49.486;12.176;2024-02-26T12:21:31;96001.00;;;9.89;67.58
29045;BME280;16133;49.486;12.176;2024-02-26T12:24:07;95993.56;;;9.73;67.20
29045;BME280;16133;49.486;12.176;2024-02-26T12:26:33;95999.88;;;9.59;68.40
29045;BME280;16133;49.486;12.176;2024-02-26T12:28:58;95997.47;;;9.51;68.61
29045;BME280;16133;49.486;12.176;2024-02-26T12:31:24;96003.56;;;9.51;68.88
29045;BME280;16133;49.486;12.176;2024-02-26T12:33:49;96006.84;;;9.47;69.33
29045;BME280;16133;49.486;12.176;2024-02-26T12:36:15;96021.50;;;9.43;69.04
29045;BME280;16133;49.486;12.176;2024-02-26T12:38:40;96015.19;;;9.44;70.12
29045;BME280;16133;49.486;12.176;2024-02-26T12:41:06;96010.91;;;9.49;68.68
29045;BME280;16133;49.486;12.176;2024-02-26T12:43:32;96026.59;;;9.51;69.76
29045;BME280;16133;49.486;12.176;2024-02-26T12:45:57;96030.44;;;9.55;68.30
29045;BME280;16133;49.486;12.176;2024-02-26T12:48:23;96032.72;;;9.58;69.49